In Rescue
 
Open Full Screen Window  High Contrast Mode
Wind Gusting 00 knots
08
February 02, 2023 6:42 PM CST
Weather Information
Wind Direction
  300 °
Wind Speed
  08 kt (9 mph)
Wind Gust
  00 kt (0 mph)
Altimeter
30.50 in
Visibility
10 SM
Temperature
-27° C
-16° F
Dewpoint
-31° C
-23° F
Humidity
69%
1hr Rain Fall
00.00 in.
24hr Rain Fall
00.00 in.
Sky Condition
Clear
VFR

METAR KBJI 030042Z AUTO 30008KT 10SM CLR M27/M31 A3050 RMK AO2 T12741315

FAA Disclaimer: The data displayed is for advisory purposes only and is not to be used for flight planning or operations.